createdAt,value
2018-12-17T00:01:43.489Z,96978.74
2018-12-17T00:04:10.456Z,96983.19
2018-12-17T00:06:37.384Z,96983.77
2018-12-17T00:09:04.343Z,96982.28
2018-12-17T00:11:31.325Z,96985.72
2018-12-17T00:13:58.268Z,96987.46
2018-12-17T00:16:25.232Z,96993.13
2018-12-17T00:18:52.227Z,96997.03
2018-12-17T00:21:19.168Z,97002.67
2018-12-17T00:23:46.114Z,97003.67
2018-12-17T00:26:13.123Z,97008.56
2018-12-17T00:28:40.068Z,97019.23
2018-12-17T00:31:07.023Z,97013.53
2018-12-17T00:33:33.972Z,97015.89
2018-12-17T00:36:00.919Z,97016.41
2018-12-17T00:38:28.364Z,97016.30
2018-12-17T00:40:55.313Z,97022.98
2018-12-17T00:43:22.263Z,97020.69
2018-12-17T00:45:49.210Z,97025.47
2018-12-17T00:48:16.178Z,97025.05
2018-12-17T00:50:43.581Z,97024.78
2018-12-17T00:53:10.531Z,97025.20
2018-12-17T00:55:37.517Z,97033.30
2018-12-17T01:00:37.863Z,97025.44
2018-12-17T01:03:05.295Z,97027.93
2018-12-17T01:05:32.230Z,97024.44
2018-12-17T01:07:59.194Z,97025.48
2018-12-17T01:10:26.149Z,97027.24
2018-12-17T01:12:53.131Z,97030.52
2018-12-17T01:15:20.187Z,97034.19
2018-12-17T01:17:47.292Z,97039.48
2018-12-17T01:20:14.272Z,97039.36
2018-12-17T01:22:41.252Z,97041.13
2018-12-17T01:25:08.256Z,97042.91
2018-12-17T01:27:35.221Z,97041.87
2018-12-17T01:30:02.260Z,97052.75
2018-12-17T01:32:29.283Z,97052.16
2018-12-17T01:34:56.374Z,97051.23
2018-12-17T01:37:23.826Z,97064.03
2018-12-17T01:39:50.787Z,97070.73
2018-12-17T01:42:18.224Z,97075.25
2018-12-17T01:44:45.619Z,97082.09
2018-12-17T01:47:12.574Z,97087.83
2018-12-17T01:49:39.525Z,97083.56
2018-12-17T01:52:06.483Z,97085.85
2018-12-17T01:54:33.891Z,97079.23
2018-12-17T01:57:00.847Z,97083.10
2018-12-17T01:59:27.811Z,97089.37
2018-12-17T02:01:54.780Z,97093.66
2018-12-17T02:04:21.738Z,97098.03
2018-12-17T02:06:48.704Z,97102.52
2018-12-17T02:09:15.663Z,97096.78
2018-12-17T02:11:42.620Z,97093.59
2018-12-17T02:14:09.594Z,97099.11
2018-12-17T02:16:36.541Z,97102.18
2018-12-17T02:19:03.491Z,97108.17
2018-12-17T02:21:30.436Z,97111.61
2018-12-17T02:23:57.380Z,97114.39
2018-12-17T02:26:24.368Z,97122.56
2018-12-17T02:28:51.364Z,97133.00
2018-12-17T02:31:18.321Z,97137.38
2018-12-17T02:33:45.439Z,97145.55
2018-12-17T02:36:12.383Z,97143.78
2018-12-17T02:38:39.340Z,97143.58
2018-12-17T02:41:06.287Z,97150.13
2018-12-17T02:43:33.329Z,97161.71
2018-12-17T02:46:00.309Z,97165.05
2018-12-17T02:48:27.239Z,97170.84
2018-12-17T02:50:54.194Z,97171.11
2018-12-17T02:53:21.158Z,97175.69
2018-12-17T02:55:48.105Z,97173.36
2018-12-17T02:58:15.065Z,97176.84
2018-12-17T03:00:42.035Z,97169.75
2018-12-17T03:03:08.995Z,97163.09
2018-12-17T03:05:35.961Z,97155.88
2018-12-17T03:08:02.905Z,97161.84
2018-12-17T03:10:29.855Z,97172.58
2018-12-17T03:12:56.832Z,97184.39
2018-12-17T03:15:23.782Z,97181.98
2018-12-17T03:17:50.767Z,97177.47
2018-12-17T03:20:17.703Z,97176.74
2018-12-17T03:22:44.652Z,97185.85
2018-12-17T03:25:11.618Z,97190.59
2018-12-17T03:27:38.580Z,97190.11
2018-12-17T03:30:05.539Z,97190.38
2018-12-17T03:32:32.479Z,97193.17
2018-12-17T03:34:59.429Z,97196.88
2018-12-17T03:37:26.524Z,97195.77
2018-12-17T03:39:53.478Z,97194.27
2018-12-17T03:44:48.919Z,97208.55
2018-12-17T03:47:15.896Z,97205.00
2018-12-17T03:49:42.894Z,97198.91
2018-12-17T03:52:10.963Z,97212.39
2018-12-17T03:54:37.919Z,97207.24
2018-12-17T03:57:05.116Z,97213.49
2018-12-17T03:59:32.050Z,97220.11
2018-12-17T04:01:59.003Z,97226.73
2018-12-17T04:04:25.955Z,97229.60
2018-12-17T04:06:52.902Z,97230.86
2018-12-17T04:09:19.892Z,97237.98
2018-12-17T04:11:46.879Z,97240.09
2018-12-17T04:14:13.839Z,97236.95
2018-12-17T04:16:40.769Z,97231.27
2018-12-17T04:19:07.776Z,97220.13
2018-12-17T04:21:34.719Z,97224.19
2018-12-17T04:24:01.670Z,97238.83
2018-12-17T04:26:28.865Z,97245.08
2018-12-17T04:28:55.791Z,97243.94
2018-12-17T04:31:22.801Z,97252.53
2018-12-17T04:33:49.744Z,97258.09
2018-12-17T04:36:16.699Z,97262.42
2018-12-17T04:38:43.693Z,97263.73
2018-12-17T04:41:10.674Z,97271.95
2018-12-17T04:43:37.641Z,97275.87
2018-12-17T04:46:04.579Z,97276.85
2018-12-17T04:48:31.535Z,97281.34
2018-12-17T04:50:58.512Z,97290.09
2018-12-17T04:53:25.495Z,97293.95
2018-12-17T04:55:52.468Z,97293.74
2018-12-17T04:58:19.515Z,97300.82
2018-12-17T05:00:46.485Z,97306.91
2018-12-17T05:03:13.639Z,97305.87
2018-12-17T05:05:40.618Z,97315.26
2018-12-17T05:08:07.562Z,97323.13
2018-12-17T05:10:34.520Z,97327.25
2018-12-17T05:13:01.454Z,97336.00
2018-12-17T05:15:28.426Z,97341.41
2018-12-17T05:17:55.375Z,97348.86
2018-12-17T05:20:22.324Z,97348.20
2018-12-17T05:22:49.290Z,97354.23
2018-12-17T05:25:16.669Z,97357.68
2018-12-17T05:27:43.619Z,97360.48
2018-12-17T05:30:10.595Z,97361.94
2018-12-17T05:32:37.657Z,97363.20
2018-12-17T05:35:04.656Z,97369.87
2018-12-17T05:37:31.606Z,97370.14
2018-12-17T05:39:58.901Z,97383.62
2018-12-17T05:42:25.886Z,97395.78
2018-12-17T05:44:52.916Z,97393.11
2018-12-17T05:47:20.295Z,97399.25
2018-12-17T05:49:47.309Z,97400.56
2018-12-17T05:52:14.361Z,97408.23
2018-12-17T05:54:41.365Z,97409.80
2018-12-17T05:57:08.394Z,97415.33
2018-12-17T05:59:35.816Z,97411.65
2018-12-17T06:02:03.250Z,97421.33
2018-12-17T06:04:30.413Z,97425.87
2018-12-17T06:06:57.500Z,97430.77
2018-12-17T06:09:24.554Z,97432.58
2018-12-17T06:11:51.577Z,97441.00
2018-12-17T06:14:18.561Z,97439.73
2018-12-17T06:16:46.599Z,97448.31
2018-12-17T06:19:14.190Z,97455.03
2018-12-17T06:21:41.223Z,97466.94
2018-12-17T06:24:08.176Z,97469.45
2018-12-17T06:26:36.975Z,97471.29
2018-12-17T06:29:04.072Z,97475.27
2018-12-17T06:31:31.048Z,97487.72
2018-12-17T06:33:58.075Z,97481.52
2018-12-17T06:36:25.135Z,97488.84
2018-12-17T06:38:52.108Z,97498.38
2018-12-17T06:41:19.255Z,97505.47
2018-12-17T06:43:46.259Z,97502.86
2018-12-17T06:46:13.247Z,97504.98
2018-12-17T06:48:40.263Z,97509.59
2018-12-17T06:51:07.299Z,97512.45
2018-12-17T06:53:34.269Z,97514.19
2018-12-17T06:58:33.757Z,97527.94
2018-12-17T07:01:00.720Z,97526.07
2018-12-17T07:03:27.821Z,97535.14
2018-12-17T07:05:55.757Z,97542.97
2018-12-17T07:08:22.741Z,97555.89
2018-12-17T07:10:49.740Z,97558.97
2018-12-17T07:13:16.767Z,97554.59
2018-12-17T07:15:45.294Z,97560.83
2018-12-17T07:18:12.256Z,97570.74
2018-12-17T07:20:39.258Z,97579.45
2018-12-17T07:23:06.266Z,97582.05
2018-12-17T07:25:33.237Z,97581.59
2018-12-17T07:28:00.216Z,97591.60
2018-12-17T07:30:27.187Z,97595.23
2018-12-17T07:32:54.171Z,97596.25
2018-12-17T07:35:21.199Z,97601.56
2018-12-17T07:37:48.175Z,97615.98
2018-12-17T07:40:15.183Z,97621.50
2018-12-17T07:42:42.147Z,97625.41
2018-12-17T07:45:09.201Z,97630.07
2018-12-17T07:47:37.170Z,97637.42
2018-12-17T07:50:04.141Z,97641.52
2018-12-17T07:52:31.107Z,97643.95
2018-12-17T07:54:58.168Z,97656.68
2018-12-17T07:57:25.198Z,97660.37
2018-12-17T07:59:56.685Z,97666.59
2018-12-17T08:02:19.253Z,97663.98
2018-12-17T08:04:46.244Z,97674.98
2018-12-17T08:07:13.204Z,97679.05
2018-12-17T08:09:40.270Z,97683.84
2018-12-17T08:12:07.274Z,97671.63
2018-12-17T08:14:34.400Z,97684.03
2018-12-17T08:17:01.377Z,97690.33
2018-12-17T08:19:29.149Z,97698.59
2018-12-17T08:21:56.131Z,97703.91
2018-12-17T08:24:24.578Z,97714.14
2018-12-17T08:26:51.575Z,97716.90
2018-12-17T08:29:18.619Z,97728.53
2018-12-17T08:31:45.680Z,97739.00
2018-12-17T08:34:13.542Z,97738.53
2018-12-17T08:36:40.543Z,97740.97
2018-12-17T08:39:07.812Z,97752.87
2018-12-17T08:41:34.824Z,97750.47
2018-12-17T08:44:01.905Z,97757.38
2018-12-17T08:46:28.970Z,97763.98
2018-12-17T08:48:56.087Z,97769.39
2018-12-17T08:51:23.128Z,97773.13
2018-12-17T08:53:50.632Z,97782.09
2018-12-17T08:56:17.647Z,97781.80
2018-12-17T08:58:44.734Z,97790.59
2018-12-17T09:01:11.723Z,97793.98
2018-12-17T09:03:38.778Z,97793.69
2018-12-17T09:06:05.791Z,97804.11
2018-12-17T09:08:32.986Z,97812.94
2018-12-17T09:11:00.061Z,97816.90
2018-12-17T09:13:27.122Z,97820.20
2018-12-17T09:15:54.084Z,97823.41
2018-12-17T09:18:21.120Z,97828.66
2018-12-17T09:20:48.192Z,97830.38
2018-12-17T09:23:15.309Z,97830.53
2018-12-17T09:25:42.390Z,97831.97
2018-12-17T09:28:09.428Z,97839.17
2018-12-17T09:30:41.424Z,97836.55
2018-12-17T09:33:03.602Z,97836.35
2018-12-17T09:35:30.591Z,97836.80
2018-12-17T09:37:58.472Z,97830.89
2018-12-17T09:40:25.478Z,97844.02
2018-12-17T09:42:52.606Z,97851.25
2018-12-17T09:45:20.422Z,97849.83
2018-12-17T09:47:47.483Z,97856.71
2018-12-17T09:50:14.483Z,97860.88
2018-12-17T09:52:41.813Z,97866.55
2018-12-17T09:55:10.178Z,97866.75
2018-12-17T09:57:37.971Z,97865.19
2018-12-17T10:00:05.068Z,97875.13
2018-12-17T10:02:32.844Z,97874.87
2018-12-17T10:04:59.861Z,97876.42
2018-12-17T10:07:30.422Z,97880.59
2018-12-17T10:09:53.989Z,97882.86
2018-12-17T10:12:21.058Z,97882.59
2018-12-17T10:14:48.023Z,97889.27
2018-12-17T10:17:15.078Z,97891.02
2018-12-17T10:19:42.057Z,97887.31
2018-12-17T10:22:09.023Z,97887.01
2018-12-17T10:24:35.991Z,97892.63
2018-12-17T10:27:03.160Z,97897.23
2018-12-17T10:29:30.143Z,97904.25
2018-12-17T10:31:57.124Z,97905.45
2018-12-17T10:34:24.241Z,97900.17
2018-12-17T10:36:51.253Z,97906.89
2018-12-17T10:39:18.256Z,97898.58
2018-12-17T10:41:45.516Z,97902.50
2018-12-17T10:44:12.516Z,97903.78
2018-12-17T10:46:40.049Z,97894.94
2018-12-17T10:49:07.514Z,97894.91
2018-12-17T10:51:34.459Z,97901.34
2018-12-17T10:54:01.904Z,97891.39
2018-12-17T10:56:29.311Z,97899.64
2018-12-17T10:58:56.722Z,97897.05
2018-12-17T11:01:28.634Z,97905.42
2018-12-17T11:03:56.033Z,97902.28
2018-12-17T11:06:23.840Z,97907.52
2018-12-17T11:08:51.318Z,97898.41
2018-12-17T11:11:18.724Z,97899.59
2018-12-17T11:13:46.196Z,97898.09
2018-12-17T11:16:13.628Z,97881.02
2018-12-17T11:18:41.036Z,97869.78
2018-12-17T11:21:08.543Z,97867.55
2018-12-17T11:23:36.097Z,97859.70
2018-12-17T11:26:03.572Z,97853.30
2018-12-17T11:28:31.035Z,97863.77
2018-12-17T11:30:58.475Z,97860.58
2018-12-17T11:33:26.315Z,97852.76
2018-12-17T11:35:53.817Z,97846.84
2018-12-17T11:38:21.316Z,97855.17
2018-12-17T11:40:48.749Z,97857.57
2018-12-17T11:43:16.164Z,97843.63
2018-12-17T11:45:43.583Z,97854.33
2018-12-17T11:48:11.013Z,97846.03
2018-12-17T11:50:38.433Z,97854.95
2018-12-17T11:53:05.846Z,97858.84
2018-12-17T11:55:33.323Z,97867.58
2018-12-17T11:58:04.635Z,97875.27
2018-12-17T12:00:32.057Z,97878.28
2018-12-17T12:02:59.509Z,97872.45
2018-12-17T12:05:26.882Z,97865.39
2018-12-17T12:07:54.283Z,97857.64
2018-12-17T12:10:21.850Z,97864.03
2018-12-17T12:12:49.282Z,97862.72
2018-12-17T12:15:17.346Z,97867.54
2018-12-17T12:17:44.822Z,97871.41
2018-12-17T12:20:12.276Z,97872.53
2018-12-17T12:22:40.388Z,97872.60
2018-12-17T12:25:07.959Z,97871.77
2018-12-17T12:27:35.417Z,97868.28
2018-12-17T12:30:02.861Z,97866.06
2018-12-17T12:32:31.909Z,97863.27
2018-12-17T12:34:59.346Z,97868.34
2018-12-17T12:37:26.753Z,97877.84
2018-12-17T12:39:54.217Z,97887.59
2018-12-17T12:42:21.894Z,97895.10
2018-12-17T12:44:49.591Z,97899.71
2018-12-17T12:47:16.990Z,97906.77
2018-12-17T12:49:44.580Z,97905.65
2018-12-17T12:52:12.007Z,97910.98
2018-12-17T12:54:39.925Z,97921.05
2018-12-17T12:57:08.099Z,97925.55
2018-12-17T12:59:35.559Z,97924.75
2018-12-17T13:02:02.969Z,97916.42
2018-12-17T13:04:30.400Z,97915.75
2018-12-17T13:06:57.853Z,97905.51
2018-12-17T13:09:25.258Z,97898.27
2018-12-17T13:11:52.676Z,97899.53
2018-12-17T13:14:20.205Z,97902.73
2018-12-17T13:16:47.659Z,97900.74
2018-12-17T13:19:15.108Z,97912.27
2018-12-17T13:21:42.515Z,97924.20
2018-12-17T13:24:10.009Z,97924.20
2018-12-17T13:26:37.402Z,97932.58
2018-12-17T13:29:04.847Z,97939.84
2018-12-17T13:31:32.253Z,97962.58
2018-12-17T13:33:59.678Z,97967.41
2018-12-17T13:36:27.099Z,97975.20
2018-12-17T13:38:54.755Z,97979.66
2018-12-17T13:41:22.155Z,97986.52
2018-12-17T13:43:49.571Z,97984.62
2018-12-17T13:46:16.982Z,97993.11
2018-12-17T13:48:44.398Z,97997.20
2018-12-17T13:54:08.892Z,97993.83
2018-12-17T13:56:36.291Z,98003.08
2018-12-17T13:59:03.746Z,98003.89
2018-12-17T14:01:31.151Z,98009.52
2018-12-17T14:03:58.621Z,98006.04
2018-12-17T14:06:25.978Z,98011.95
2018-12-17T14:08:53.466Z,98016.31
2018-12-17T14:11:20.842Z,98027.53
2018-12-17T14:13:48.296Z,98026.52
2018-12-17T14:16:15.815Z,98026.34
2018-12-17T14:18:49.456Z,98026.98
2018-12-17T14:21:22.716Z,98029.72
2018-12-17T14:23:50.202Z,98039.80
2018-12-17T14:26:17.682Z,98039.66
2018-12-17T14:28:45.145Z,98047.25
2018-12-17T14:31:13.348Z,98047.42
2018-12-17T14:33:41.801Z,98055.05
2018-12-17T14:36:09.236Z,98060.18
2018-12-17T14:38:36.633Z,98051.86
2018-12-17T14:41:04.055Z,98055.17
2018-12-17T14:43:31.550Z,98059.45
2018-12-17T14:45:58.973Z,98059.34
2018-12-17T14:48:26.424Z,98061.77
2018-12-17T14:50:53.872Z,98057.97
2018-12-17T14:53:21.279Z,98058.92
2018-12-17T14:55:48.695Z,98059.40
2018-12-17T14:58:16.116Z,98059.42
2018-12-17T15:00:43.520Z,98052.31
2018-12-17T15:03:11.043Z,98058.81
2018-12-17T15:05:38.464Z,98057.89
2018-12-17T15:08:06.619Z,98053.88
2018-12-17T15:10:34.061Z,98065.09
2018-12-17T15:13:01.465Z,98064.80
2018-12-17T15:15:29.204Z,98071.85
2018-12-17T15:17:56.634Z,98077.73
2018-12-17T15:20:25.148Z,98086.50
2018-12-17T15:22:52.555Z,98087.89
2018-12-17T15:25:19.984Z,98098.30
2018-12-17T15:27:47.544Z,98101.89
2018-12-17T15:30:15.532Z,98103.66
2018-12-17T15:32:43.013Z,98111.77
2018-12-17T15:35:10.474Z,98104.34
2018-12-17T15:37:37.936Z,98102.01
2018-12-17T15:40:05.510Z,98111.70
2018-12-17T15:42:32.930Z,98109.77
2018-12-17T15:45:03.417Z,98113.99
2018-12-17T15:47:30.826Z,98119.47
2018-12-17T15:49:58.244Z,98128.36
2018-12-17T15:52:25.708Z,98138.12
2018-12-17T15:54:53.142Z,98141.63
2018-12-17T15:57:21.144Z,98143.06
2018-12-17T15:59:48.555Z,98150.01
2018-12-17T16:02:15.998Z,98151.81
2018-12-17T16:04:43.424Z,98158.97
2018-12-17T16:07:10.812Z,98155.61
2018-12-17T16:09:38.640Z,98159.58
2018-12-17T16:12:06.089Z,98162.35
2018-12-17T16:14:34.301Z,98169.50
2018-12-17T16:17:01.767Z,98169.13
2018-12-17T16:19:29.288Z,98175.74
2018-12-17T16:21:56.734Z,98172.28
2018-12-17T16:24:24.151Z,98176.12
2018-12-17T16:26:51.919Z,98171.14
2018-12-17T16:29:19.373Z,98181.20
2018-12-17T16:31:46.782Z,98187.74
2018-12-17T16:34:14.285Z,98187.91
2018-12-17T16:36:41.718Z,98191.91
2018-12-17T16:39:09.600Z,98190.14
2018-12-17T16:41:37.012Z,98203.41
2018-12-17T16:44:04.439Z,98206.78
2018-12-17T16:46:31.836Z,98205.05
2018-12-17T16:48:59.375Z,98206.95
2018-12-17T16:51:26.792Z,98203.03
2018-12-17T16:53:54.973Z,98202.92
2018-12-17T16:56:22.387Z,98205.58
2018-12-17T16:58:50.593Z,98201.73
2018-12-17T17:01:18.021Z,98212.22
2018-12-17T17:03:45.467Z,98208.88
2018-12-17T17:06:12.863Z,98213.33
2018-12-17T17:08:40.255Z,98219.16
2018-12-17T17:11:07.681Z,98218.84
2018-12-17T17:13:35.094Z,98222.06
2018-12-17T17:16:02.515Z,98231.91
2018-12-17T17:18:30.032Z,98233.02
2018-12-17T17:20:57.495Z,98232.35
2018-12-17T17:23:24.906Z,98236.65
2018-12-17T17:25:52.450Z,98237.44
2018-12-17T17:28:19.852Z,98240.17
2018-12-17T17:30:47.248Z,98247.82
2018-12-17T17:33:15.701Z,98241.27
2018-12-17T17:35:44.249Z,98241.94
2018-12-17T17:38:12.128Z,98245.28
2018-12-17T17:40:39.699Z,98246.13
2018-12-17T17:43:07.221Z,98247.03
2018-12-17T17:45:34.654Z,98254.79
2018-12-17T17:48:02.809Z,98246.83
2018-12-17T17:50:30.194Z,98247.71
2018-12-17T17:52:57.598Z,98255.53
2018-12-17T17:55:25.164Z,98253.24
2018-12-17T17:57:52.614Z,98265.04
2018-12-17T18:00:20.074Z,98261.69
2018-12-17T18:02:47.517Z,98249.91
2018-12-17T18:05:15.674Z,98258.67
2018-12-17T18:07:43.083Z,98264.28
2018-12-17T18:10:10.503Z,98261.80
2018-12-17T18:12:38.034Z,98256.63
2018-12-17T18:15:05.500Z,98259.39
2018-12-17T18:17:33.107Z,98266.66
2018-12-17T18:20:00.598Z,98270.60
2018-12-17T18:22:27.994Z,98269.88
2018-12-17T18:24:55.536Z,98270.30
2018-12-17T18:27:23.100Z,98271.73
2018-12-17T18:29:51.544Z,98280.86
2018-12-17T18:32:25.741Z,98282.03
2018-12-17T18:34:46.384Z,98281.55
2018-12-17T18:37:13.799Z,98275.19
2018-12-17T18:39:41.218Z,98276.69
2018-12-17T18:42:08.688Z,98279.09
2018-12-17T18:44:36.151Z,98275.95
2018-12-17T18:47:03.543Z,98284.33
2018-12-17T18:49:32.800Z,98282.16
2018-12-17T18:52:00.297Z,98289.94
2018-12-17T18:54:27.735Z,98292.28
2018-12-17T18:56:55.135Z,98291.31
2018-12-17T18:59:22.541Z,98292.94
2018-12-17T19:01:49.964Z,98297.19
2018-12-17T19:04:17.521Z,98292.00
2018-12-17T19:06:44.975Z,98297.62
2018-12-17T19:09:12.378Z,98300.13
2018-12-17T19:11:39.901Z,98303.42
2018-12-17T19:14:07.316Z,98307.07
2018-12-17T19:16:34.773Z,98305.94
2018-12-17T19:19:02.681Z,98309.19
2018-12-17T19:21:30.143Z,98302.20
2018-12-17T19:23:57.611Z,98308.66
2018-12-17T19:26:25.031Z,98302.48
2018-12-17T19:28:52.467Z,98299.86
2018-12-17T19:31:20.374Z,98294.57
2018-12-17T19:33:47.821Z,98297.52
2018-12-17T19:36:15.377Z,98292.22
2018-12-17T19:38:43.808Z,98282.52
2018-12-17T19:41:11.220Z,98284.13
2018-12-17T19:43:38.748Z,98275.29
2018-12-17T19:46:06.317Z,98277.83
2018-12-17T19:48:33.747Z,98278.68
2018-12-17T19:51:01.170Z,98279.28
2018-12-17T19:53:28.582Z,98272.98
2018-12-17T19:55:55.987Z,98278.77
2018-12-17T19:58:23.523Z,98274.03
2018-12-17T20:00:50.992Z,98288.41
2018-12-17T20:03:18.450Z,98275.88
2018-12-17T20:05:45.860Z,98277.97
2018-12-17T20:08:13.292Z,98278.45
2018-12-17T20:10:40.716Z,98279.47
2018-12-17T20:13:08.210Z,98277.83
2018-12-17T20:15:36.428Z,98276.70
2018-12-17T20:18:03.836Z,98273.84
2018-12-17T20:20:31.271Z,98268.84
2018-12-17T20:22:59.427Z,98268.08
2018-12-17T20:25:28.182Z,98267.47
2018-12-17T20:27:55.286Z,98272.58
2018-12-17T20:30:22.695Z,98262.77
2018-12-17T20:32:53.588Z,98274.44
2018-12-17T20:35:17.525Z,98272.23
2018-12-17T20:37:44.963Z,98273.54
2018-12-17T20:40:12.463Z,98275.64
2018-12-17T20:42:39.864Z,98277.39
2018-12-17T20:45:07.303Z,98278.79
2018-12-17T20:47:34.791Z,98281.39
2018-12-17T20:50:02.216Z,98283.19
2018-12-17T20:52:29.660Z,98283.41
2018-12-17T20:54:57.111Z,98283.09
2018-12-17T20:57:24.565Z,98287.01
2018-12-17T20:59:52.496Z,98287.98
2018-12-17T21:02:19.987Z,98283.81
2018-12-17T21:04:47.408Z,98282.94
2018-12-17T21:07:14.823Z,98286.95
2018-12-17T21:09:42.922Z,98289.24
2018-12-17T21:12:10.338Z,98288.27
2018-12-17T21:14:37.752Z,98292.52
2018-12-17T21:17:05.237Z,98293.05
2018-12-17T21:19:32.659Z,98299.14
2018-12-17T21:22:01.903Z,98294.41
2018-12-17T21:24:29.492Z,98294.66
2018-12-17T21:26:57.285Z,98288.49
2018-12-17T21:29:24.705Z,98289.38
2018-12-17T21:31:56.786Z,98293.50
2018-12-17T21:34:24.196Z,98292.59
2018-12-17T21:36:52.792Z,98286.16
2018-12-17T21:39:21.215Z,98286.36
2018-12-17T21:41:51.484Z,98290.74
2018-12-17T21:44:19.267Z,98289.05
2018-12-17T21:46:47.002Z,98281.56
2018-12-17T21:49:15.750Z,98284.11
2018-12-17T21:51:44.721Z,98286.13
2018-12-17T21:54:11.745Z,98284.35
2018-12-17T21:56:41.151Z,98285.67
2018-12-17T21:59:08.510Z,98286.50
2018-12-17T22:01:35.624Z,98285.23
2018-12-17T22:04:03.298Z,98278.65
2018-12-17T22:06:30.378Z,98281.62
2018-12-17T22:08:58.588Z,98279.70
2018-12-17T22:11:26.339Z,98279.05
2018-12-17T22:13:54.207Z,98279.08
2018-12-17T22:16:22.306Z,98283.23
2018-12-17T22:18:51.303Z,98282.97
2018-12-17T22:21:21.272Z,98288.58
2018-12-17T22:23:49.399Z,98285.86
2018-12-17T22:26:16.475Z,98284.05
2018-12-17T22:28:44.857Z,98281.92
2018-12-17T22:31:11.920Z,98288.46
2018-12-17T22:33:39.533Z,98290.23
2018-12-17T22:36:06.465Z,98285.45
2018-12-17T22:38:34.894Z,98279.78
2018-12-17T22:41:03.377Z,98283.27
2018-12-17T22:43:32.370Z,98284.65
2018-12-17T22:46:00.210Z,98284.72
2018-12-17T22:48:28.236Z,98276.30
2018-12-17T22:50:56.063Z,98287.69
2018-12-17T22:53:23.827Z,98282.81
2018-12-17T22:55:51.664Z,98281.09
2018-12-17T22:58:19.701Z,98287.55
2018-12-17T23:00:46.666Z,98290.66
2018-12-17T23:03:14.020Z,98286.92
2018-12-17T23:05:43.949Z,98291.60
2018-12-17T23:08:10.940Z,98285.06
2018-12-17T23:10:44.492Z,98284.25
2018-12-17T23:13:18.148Z,98283.42
2018-12-17T23:15:51.311Z,98282.16
2018-12-17T23:18:19.286Z,98270.11
2018-12-17T23:20:46.387Z,98267.59
2018-12-17T23:23:13.679Z,98270.09
2018-12-17T23:25:41.553Z,98273.88
2018-12-17T23:28:08.748Z,98273.44
2018-12-17T23:30:35.840Z,98279.91
2018-12-17T23:33:04.863Z,98270.05
2018-12-17T23:35:32.085Z,98261.42
2018-12-17T23:38:01.155Z,98257.90
2018-12-17T23:40:28.278Z,98255.80
2018-12-17T23:42:55.243Z,98256.11
2018-12-17T23:45:22.269Z,98258.22
2018-12-17T23:47:49.257Z,98265.23
2018-12-17T23:50:16.231Z,98266.25
2018-12-17T23:52:43.209Z,98265.83
2018-12-17T23:55:10.215Z,98257.63
2018-12-17T23:57:37.227Z,98262.38
